Terminal Aerodrome Forecast
Issued by NWS Albuquerque, NM

Home | Current Version | Previous Version | Text Only | Print | Product List | Glossary On
Versions: 1 2 3 4 5 6 7 8 9 10 11 12 13 14 15
000
FTUS45 KABQ 301200 RRA
TAFABQ
TAF
KABQ 301213Z 3012/3112 09016G25KT P6SM SCT030 OVC050
      TEMPO 3012/3016 4SM -SN BR OVC025
     FM301600 09013KT 3SM -RASN BR SCT009 BKN019
     FM302000 09008KT 4SM -RA BR BKN015
     FM310200 09014G21KT 3SM -SNRA BR SCT005 BKN009=

USA.gov is the U.S. government's official web portal to all federal, state and local government web resources and services.